Time;durP1;ratioP1;P1;durP2;ratioP2;P2;SDS_P1;SDS_P2;PMS_P1;PMS_P2;Temp;Humidity;BMP_temperature;BMP_pressure;BME280_temperature;BME280_humidity;BME280_pressure;Samples;Min_cycle;Max_cycle;Signal;HPM_P1;HPM_P2
2022/04/21 00:00:16;;;;;;;38.80;26.13;;;10.80;99.90;;;;;;6304267;22;20064;-88
2022/04/21 00:02:43;;;;;;;42.50;25.80;;;;;;;;;;6304698;22;20467;-90
2022/04/21 00:05:10;;;;;;;38.95;25.92;;;10.80;99.90;;;;;;6303694;22;20015;-90
2022/04/21 00:07:37;;;;;;;42.60;26.23;;;10.80;99.90;;;;;;6276469;22;20505;-91
2022/04/21 00:10:04;;;;;;;40.83;26.83;;;10.80;99.90;;;;;;6304374;22;20078;-90
2022/04/21 00:12:30;;;;;;;38.28;26.30;;;10.70;99.90;;;;;;6304094;22;20010;-89
2022/04/21 00:14:56;;;;;;;46.03;26.90;;;;;;;;;;6304280;22;20003;-90
2022/04/21 00:17:23;;;;;;;49.20;30.88;;;;;;;;;;6303389;22;20011;-88
2022/04/21 00:19:49;;;;;;;45.08;27.85;;;;;;;;;;6276347;22;20003;-89
2022/04/21 00:24:59;;;;;;;49.28;27.95;;;10.60;99.90;;;;;;6303165;22;20517;-90
2022/04/21 00:27:25;;;;;;;48.78;28.13;;;10.60;99.90;;;;;;6276292;22;20033;-89
2022/04/21 00:29:51;;;;;;;42.30;28.15;;;10.60;99.90;;;;;;6303214;22;20388;-87
2022/04/21 00:32:16;;;;;;;50.53;28.83;;;10.60;99.90;;;;;;6304098;22;19999;-88
2022/04/21 00:34:42;;;;;;;50.97;28.42;;;10.60;99.90;;;;;;6304938;22;20332;-88
2022/04/21 00:37:08;;;;;;;46.35;29.38;;;10.60;99.90;;;;;;6303649;22;19999;-88
2022/04/21 00:39:35;;;;;;;45.28;27.40;;;;;;;;;;6302961;22;19999;-88
2022/04/21 00:42:01;;;;;;;49.08;31.58;;;10.50;99.90;;;;;;6275319;22;20014;-88
2022/04/21 00:44:28;;;;;;;56.08;30.83;;;10.50;99.90;;;;;;6303244;22;20006;-89
2022/04/21 00:46:56;;;;;;;46.85;28.63;;;10.50;99.90;;;;;;6303019;22;20015;-88
2022/04/21 00:49:22;;;;;;;46.13;29.05;;;;;;;;;;6302773;22;20003;-88
2022/04/21 00:51:50;;;;;;;52.60;29.58;;;10.50;99.90;;;;;;6303117;22;20035;-89
2022/04/21 00:54:17;;;;;;;41.95;29.25;;;10.50;99.90;;;;;;6304034;22;20341;-90
2022/04/21 00:56:44;;;;;;;45.17;28.63;;;10.50;99.90;;;;;;6303957;22;19995;-90
2022/04/21 00:59:13;;;;;;;51.13;30.17;;;10.40;99.90;;;;;;6302807;22;20010;-88
2022/04/21 01:04:25;;;;;;;47.95;30.33;;;10.40;99.90;;;;;;6304805;22;20011;-88
2022/04/21 01:06:52;;;;;;;50.58;30.40;;;10.40;99.90;;;;;;6304305;22;20015;-87
2022/04/21 01:09:18;;;;;;;50.25;29.90;;;10.40;99.90;;;;;;6303685;22;20336;-88
2022/04/21 01:11:45;;;;;;;55.00;32.00;;;10.40;99.90;;;;;;6303299;22;20026;-91
2022/04/21 01:14:12;;;;;;;54.92;29.83;;;10.30;99.90;;;;;;6302689;22;19999;-88
2022/04/21 01:16:38;;;;;;;47.23;30.80;;;10.40;99.90;;;;;;6302838;22;20465;-88
2022/04/21 01:19:04;;;;;;;51.53;32.33;;;10.30;99.90;;;;;;6303184;22;20014;-90
2022/04/21 01:21:29;;;;;;;51.60;31.95;;;10.30;99.90;;;;;;6303045;22;20003;-88
2022/04/21 01:23:55;;;;;;;48.20;32.33;;;10.30;99.90;;;;;;6303119;22;20000;-90
2022/04/21 01:26:22;;;;;;;54.58;31.73;;;10.20;99.90;;;;;;6303358;22;20050;-90
2022/04/21 01:28:49;;;;;;;50.80;31.25;;;10.20;99.90;;;;;;6304674;22;20000;-90
2022/04/21 01:31:22;;;;;;;56.50;32.47;;;10.30;99.90;;;;;;6304381;22;19999;-90
2022/04/21 01:33:48;;;;;;;53.03;32.90;;;10.30;99.90;;;;;;6276739;22;20474;-90
2022/04/21 01:36:13;;;;;;;56.35;34.83;;;10.30;99.90;;;;;;6303224;22;19999;-89
2022/04/21 01:41:23;;;;;;;52.95;32.55;;;10.30;99.90;;;;;;6303193;22;20009;-90
2022/04/21 01:43:49;;;;;;;65.85;35.42;;;10.30;99.90;;;;;;6304511;22;20023;-90
2022/04/21 01:46:15;;;;;;;58.15;34.42;;;10.30;99.90;;;;;;6303174;22;20049;-90
2022/04/21 01:48:42;;;;;;;62.80;35.33;;;;;;;;;;6276933;22;20011;-90
2022/04/21 01:51:07;;;;;;;57.63;33.45;;;10.20;99.90;;;;;;6303930;22;20000;-89
2022/04/21 01:53:33;;;;;;;52.05;33.28;;;;;;;;;;6304556;22;20010;-90
2022/04/21 01:55:59;;;;;;;55.17;32.75;;;10.30;99.90;;;;;;6278234;22;20390;-90
2022/04/21 01:58:25;;;;;;;55.17;33.33;;;10.30;99.90;;;;;;6304718;22;19995;-90
2022/04/21 02:00:51;;;;;;;59.70;34.45;;;10.30;99.90;;;;;;6304727;22;20007;-88
2022/04/21 02:03:17;;;;;;;53.92;33.05;;;10.30;99.90;;;;;;6303925;22;19995;-90
2022/04/21 02:05:43;;;;;;;56.42;35.33;;;10.30;99.90;;;;;;6302886;22;20014;-91
2022/04/21 02:08:09;;;;;;;53.72;32.95;;;10.30;99.90;;;;;;6303345;22;20000;-91
2022/04/21 02:10:35;;;;;;;64.28;41.58;;;10.30;99.90;;;;;;6302862;22;20070;-91
2022/04/21 02:13:00;;;;;;;59.33;35.03;;;10.20;99.90;;;;;;6302859;22;20003;-91
2022/04/21 02:15:27;;;;;;;64.95;38.75;;;10.30;99.90;;;;;;6302607;22;20492;-91
2022/04/21 02:17:52;;;;;;;59.13;35.55;;;10.20;99.90;;;;;;6302972;22;20004;-87
2022/04/21 02:20:18;;;;;;;57.75;34.53;;;;;;;;;;6276148;22;20003;-90
2022/04/21 02:22:45;;;;;;;55.72;34.58;;;10.20;99.90;;;;;;6275320;22;19999;-90
2022/04/21 02:25:13;;;;;;;60.90;36.10;;;10.10;99.90;;;;;;6303514;22;20038;-91
2022/04/21 02:27:41;;;;;;;60.85;36.80;;;10.10;99.90;;;;;;6278485;22;20037;-89
2022/04/21 02:30:08;;;;;;;54.30;35.33;;;10.10;99.90;;;;;;6305704;22;19995;-88
2022/04/21 02:32:35;;;;;;;52.85;34.80;;;10.10;99.90;;;;;;6304247;22;20003;-89
2022/04/21 02:35:01;;;;;;;61.22;37.42;;;10.10;99.90;;;;;;6303793;22;20004;-91
2022/04/21 02:37:27;;;;;;;60.33;36.03;;;10.10;99.90;;;;;;6304757;22;20068;-94
2022/04/21 02:39:53;;;;;;;58.25;36.08;;;10.10;99.90;;;;;;6278614;22;20003;-92
2022/04/21 02:42:21;;;;;;;61.75;37.05;;;10.10;99.90;;;;;;6305370;22;20018;-91
2022/04/21 02:44:47;;;;;;;;;;;10.00;99.90;;;;;;6304580;22;20420;-90
2022/04/21 02:47:14;;;;;;;61.70;36.03;;;;;;;;;;6276700;22;20527;-87
2022/04/21 02:49:45;;;;;;;72.22;41.70;;;;;;;;;;6276784;22;20003;-92
2022/04/21 02:52:12;;;;;;;62.92;37.65;;;10.00;99.90;;;;;;6277064;22;20010;-89
2022/04/21 02:57:23;;;;;;;69.97;38.28;;;10.00;99.90;;;;;;6305059;22;20014;-92
2022/04/21 02:59:51;;;;;;;62.35;37.72;;;10.00;99.90;;;;;;6304975;22;20045;-93
2022/04/21 03:02:18;;;;;;;65.82;38.60;;;9.90;99.90;;;;;;6304846;22;19999;-91
2022/04/21 03:04:45;;;;;;;60.45;36.88;;;;;;;;;;6304146;22;20711;-91
2022/04/21 03:07:13;;;;;;;61.22;38.17;;;9.90;99.90;;;;;;6276991;22;20011;-89
2022/04/21 03:09:39;;;;;;;64.28;39.78;;;9.90;99.90;;;;;;6304426;22;19999;-92
2022/04/21 03:12:06;;;;;;;65.85;38.90;;;10.00;99.90;;;;;;6277028;22;20056;-91
2022/04/21 03:14:35;;;;;;;63.83;38.25;;;10.00;99.90;;;;;;6277068;22;20009;-90
2022/04/21 03:17:01;;;;;;;75.50;45.03;;;10.00;99.90;;;;;;6304265;22;20015;-91
2022/04/21 03:19:27;;;;;;;58.58;37.63;;;;;;;;;;6304372;22;20003;-91
2022/04/21 03:24:37;;;;;;;68.75;42.30;;;10.00;99.90;;;;;;6304265;22;20053;-93
2022/04/21 03:27:04;;;;;;;67.18;39.92;;;10.10;99.90;;;;;;6304086;22;20348;-91
2022/04/21 03:29:32;;;;;;;70.50;40.75;;;;;;;;;;6304686;22;19996;-90
2022/04/21 03:31:58;;;;;;;65.05;40.20;;;;;;;;;;6276926;22;20141;-93
2022/04/21 03:34:24;;;;;;;83.47;43.22;;;10.00;99.90;;;;;;6305312;22;20002;-90
2022/04/21 03:36:49;;;;;;;70.63;40.53;;;10.00;99.90;;;;;;6276906;22;20003;-92
2022/04/21 03:39:17;;;;;;;72.97;43.47;;;10.00;99.90;;;;;;6304142;22;20004;-91
2022/04/21 03:41:42;;;;;;;82.95;45.83;;;10.00;99.90;;;;;;6304195;22;20079;-93
2022/04/21 03:44:11;;;;;;;67.18;41.60;;;10.00;99.90;;;;;;6304177;22;20026;-93
2022/04/21 03:46:40;;;;;;;85.60;47.20;;;9.90;99.90;;;;;;6304049;22;20007;-91
2022/04/21 03:49:07;;;;;;;76.10;42.90;;;;;;;;;;6303824;22;20002;-89
2022/04/21 03:51:33;;;;;;;74.03;40.67;;;;;;;;;;6303867;22;20075;-89
2022/04/21 03:53:59;;;;;;;97.70;51.58;;;9.90;99.90;;;;;;6303973;22;19999;-91
2022/04/21 03:56:26;;;;;;;92.85;49.67;;;9.90;99.90;;;;;;6305198;22;20010;-92
2022/04/21 03:58:52;;;;;;;96.22;50.88;;;9.80;99.90;;;;;;6277153;22;20007;-91
2022/04/21 04:01:19;;;;;;;77.85;44.00;;;9.80;99.90;;;;;;6304087;22;20217;-90
2022/04/21 04:03:45;;;;;;;68.22;41.83;;;;;;;;;;6276018;22;20006;-90
2022/04/21 04:11:40;;;;;;;80.18;43.67;;;9.80;99.90;;;;;;6302965;22;20069;-88
2022/04/21 04:14:05;;;;;;;88.72;46.65;;;9.80;99.90;;;;;;6303144;22;19999;-90
2022/04/21 04:16:37;;;;;;;94.65;50.08;;;9.70;99.90;;;;;;6303021;22;20007;-89
2022/04/21 04:19:05;;;;;;;96.25;49.05;;;9.70;99.90;;;;;;6276058;22;20007;-88
2022/04/21 04:21:31;;;;;;;78.63;44.10;;;9.70;99.90;;;;;;6275783;22;20023;-88
2022/04/21 04:24:01;;;;;;;92.88;46.63;;;9.70;99.90;;;;;;6276684;22;20384;-88
2022/04/21 04:26:27;;;;;;;83.43;45.47;;;9.70;99.90;;;;;;6303798;22;20011;-90
2022/04/21 04:28:52;;;;;;;94.20;47.33;;;9.70;99.90;;;;;;6302654;22;20305;-88
2022/04/21 04:31:18;;;;;;;99.93;51.03;;;9.60;99.90;;;;;;6275595;22;20667;-88
2022/04/21 04:33:44;;;;;;;88.43;46.50;;;9.70;99.90;;;;;;6302798;22;20070;-90
2022/04/21 04:36:10;;;;;;;88.70;45.90;;;9.60;99.90;;;;;;6275648;22;20060;-87
2022/04/21 04:38:37;;;;;;;84.80;45.35;;;9.60;99.90;;;;;;6302709;22;19995;-89
2022/04/21 04:42:16;;;;;;;103.15;50.42;;;9.60;99.90;;;;;;6275693;22;20008;-89
2022/04/21 04:43:49;;;;;;;85.80;46.42;;;9.60;99.90;;;;;;6302524;22;20240;-88
2022/04/21 04:49:00;;;;;;;94.90;47.78;;;9.60;99.90;;;;;;6303435;22;20344;-87
2022/04/21 04:51:27;;;;;;;105.35;54.90;;;9.60;99.90;;;;;;6303774;22;20454;-87
2022/04/21 04:53:56;;;;;;;92.38;46.45;;;9.60;99.90;;;;;;6275273;22;20007;-87
2022/04/21 04:56:22;;;;;;;98.50;47.42;;;9.60;99.90;;;;;;6302560;22;20007;-89
2022/04/21 04:58:48;;;;;;;121.47;58.10;;;9.60;99.90;;;;;;6275625;22;20332;-88
2022/04/21 05:01:26;;;;;;;90.95;47.35;;;9.60;99.90;;;;;;6302717;22;19999;-86
2022/04/21 05:04:02;;;;;;;111.50;53.33;;;9.60;99.90;;;;;;6302526;22;20086;-87
2022/04/21 05:06:28;;;;;;;101.68;51.38;;;9.60;99.90;;;;;;6303254;22;20007;-87
2022/04/21 05:08:56;;;;;;;126.90;59.15;;;9.70;99.90;;;;;;6302181;22;19996;-88
2022/04/21 05:11:22;;;;;;;107.32;50.85;;;9.70;99.90;;;;;;6302166;22;20011;-87
2022/04/21 05:13:47;;;;;;;97.45;49.08;;;9.70;99.90;;;;;;6302503;22;20310;-87
2022/04/21 05:16:14;;;;;;;106.22;49.83;;;;;;;;;;6302139;22;20018;-86
2022/04/21 05:18:40;;;;;;;125.93;57.25;;;9.60;99.90;;;;;;6275086;22;20015;-88
2022/04/21 05:21:05;;;;;;;123.60;54.50;;;9.60;99.90;;;;;;6275257;22;20436;-89
2022/04/21 05:23:36;;;;;;;89.32;45.33;;;9.60;99.90;;;;;;6303386;22;20476;-89
2022/04/21 05:26:02;;;;;;;106.88;51.33;;;9.60;99.90;;;;;;6277682;22;20014;-87
2022/04/21 05:28:28;;;;;;;98.55;47.63;;;9.60;99.90;;;;;;6286793;22;20007;-85
2022/04/21 05:30:58;;;;;;;96.63;47.13;;;9.60;99.90;;;;;;6303470;22;19999;-85
2022/04/21 05:33:25;;;;;;;97.00;52.17;;;10.70;99.90;;;;;;6291273;22;20376;-92
2022/04/21 05:35:52;;;;;;;89.67;46.70;;;9.70;99.90;;;;;;6278647;22;20033;-93
2022/04/21 05:38:20;;;;;;;89.93;46.08;;;9.90;99.90;;;;;;6311088;22;20060;-91
2022/04/21 05:40:46;;;;;;;92.50;46.22;;;10.00;99.90;;;;;;6286623;22;20088;-87
2022/04/21 05:43:14;;;;;;;87.03;46.53;;;10.00;99.90;;;;;;6320948;22;19999;-87
2022/04/21 05:45:43;;;;;;;91.30;45.90;;;10.10;99.90;;;;;;6322512;22;20003;-88
2022/04/21 05:48:11;;;;;;;93.13;45.33;;;10.10;99.90;;;;;;6325370;22;20062;-87
2022/04/21 05:51:00;;;;;;;99.25;46.08;;;10.10;99.90;;;;;;6324100;22;20015;-86
2022/04/21 05:53:54;;;;;;;97.45;48.28;;;10.10;99.90;;;;;;6323453;22;19996;-86
2022/04/21 05:56:52;;;;;;;78.30;43.15;;;10.10;99.90;;;;;;6232692;23;20005;-86
2022/04/21 05:59:22;;;;;;;90.35;44.17;;;10.20;99.90;;;;;;6197202;23;20434;-87
2022/04/21 06:05:19;;;;;;;88.40;44.50;;;10.10;99.90;;;;;;6206215;23;20117;-86
2022/04/21 06:07:45;;;;;;;87.43;44.35;;;;;;;;;;6202301;23;19993;-90
2022/04/21 06:10:11;;;;;;;100.97;47.25;;;;;;;;;;6200250;23;20013;-91
2022/04/21 06:12:42;;;;;;;95.63;45.58;;;10.20;99.90;;;;;;6175193;23;20013;-89
2022/04/21 06:15:09;;;;;;;88.43;43.78;;;10.30;99.90;;;;;;6201046;23;20002;-87
2022/04/21 06:17:36;;;;;;;100.43;45.25;;;10.30;99.90;;;;;;6194431;23;20025;-87
2022/04/21 06:20:02;;;;;;;105.93;49.28;;;10.30;99.90;;;;;;6188019;23;20008;-87
2022/04/21 06:22:28;;;;;;;99.72;47.38;;;10.20;99.90;;;;;;6182126;23;20008;-93
2022/04/21 06:24:57;;;;;;;112.63;50.15;;;10.20;99.90;;;;;;6188080;23;20001;-92
2022/04/21 06:27:27;;;;;;;97.95;47.55;;;10.20;99.90;;;;;;6215497;23;20004;-91
2022/04/21 06:30:11;;;;;;;97.25;45.42;;;10.10;99.90;;;;;;6237980;22;20003;-92
2022/04/21 06:32:39;;;;;;;100.40;47.60;;;;;;;;;;6304638;22;20439;-92
2022/04/21 06:35:10;;;;;;;;;;;10.20;99.90;;;;;;6306233;22;20006;-90
2022/04/21 06:38:14;;;;;;;105.28;48.78;;;10.30;99.90;;;;;;6305279;22;20349;-90
2022/04/21 06:40:40;;;;;;;101.65;46.47;;;;;;;;;;6277058;22;20305;-92
2022/04/21 06:48:43;;;;;;;91.22;44.53;;;10.60;99.90;;;;;;6302585;22;20386;-89
2022/04/21 06:51:09;;;;;;;94.88;46.92;;;;;;;;;;6303293;22;20010;-90
2022/04/21 06:53:34;;;;;;;91.82;45.17;;;10.60;99.90;;;;;;6277168;22;20003;-90
2022/04/21 06:56:01;;;;;;;88.57;44.10;;;10.70;99.90;;;;;;6276325;22;20007;-88
2022/04/21 06:58:27;;;;;;;108.85;51.00;;;10.70;99.90;;;;;;6303486;22;20030;-88
2022/04/21 07:00:53;;;;;;;95.93;48.38;;;10.70;99.90;;;;;;6303244;22;19999;-89
2022/04/21 07:03:19;;;;;;;91.18;44.50;;;10.80;99.90;;;;;;6276368;22;20007;-90
2022/04/21 07:05:45;;;;;;;84.30;44.50;;;10.90;99.90;;;;;;6303346;22;20000;-90
2022/04/21 07:08:10;;;;;;;97.00;46.42;;;10.90;99.90;;;;;;6303824;22;20031;-91
2022/04/21 07:10:36;;;;;;;90.32;43.75;;;11.00;99.90;;;;;;6304220;22;20023;-89
2022/04/21 07:13:09;;;;;;;89.30;44.03;;;11.10;99.90;;;;;;6303188;22;20447;-90
2022/04/21 07:15:35;;;;;;;89.50;43.30;;;11.20;99.90;;;;;;6277284;22;20030;-91
2022/04/21 07:18:00;;;;;;;84.47;44.78;;;11.20;99.90;;;;;;6276058;22;20491;-89
2022/04/21 07:20:26;;;;;;;87.88;42.95;;;11.30;99.90;;;;;;6275629;22;20026;-92
2022/04/21 07:22:52;;;;;;;87.53;42.70;;;11.40;99.90;;;;;;6304554;22;20003;-89
2022/04/21 07:25:18;;;;;;;78.05;40.47;;;11.40;99.90;;;;;;6275672;22;20056;-89
2022/04/21 07:27:44;;;;;;;76.43;40.67;;;;;;;;;;6276433;22;20003;-91
2022/04/21 07:30:10;;;;;;;80.97;39.92;;;11.60;99.90;;;;;;6276292;22;19999;-90
2022/04/21 07:32:37;;;;;;;75.15;40.25;;;;;;;;;;6304261;22;20066;-89
2022/04/21 07:35:03;;;;;;;70.90;40.17;;;11.70;99.90;;;;;;6302902;22;19999;-90
2022/04/21 07:37:30;;;;;;;75.80;39.10;;;11.50;99.90;;;;;;6303148;22;20285;-91
2022/04/21 07:39:58;;;;;;;83.07;39.97;;;11.70;99.90;;;;;;6303797;22;19995;-90
2022/04/21 07:42:24;;;;;;;70.60;37.05;;;11.90;99.90;;;;;;6277102;22;20078;-90
2022/04/21 07:44:52;;;;;;;80.78;40.55;;;12.00;99.90;;;;;;6306644;22;20374;-91
2022/04/21 07:47:18;;;;;;;;;;;12.20;99.90;;;;;;6305128;22;20439;-89
2022/04/21 07:49:46;;;;;;;81.93;37.42;;;12.20;99.90;;;;;;6303515;22;19979;-92
2022/04/21 07:55:05;;;;;;;79.75;37.35;;;;;;;;;;6303479;22;19945;-91
2022/04/21 07:57:31;;;;;;;68.15;35.88;;;;;;;;;;6303012;22;20038;-90
2022/04/21 07:59:59;;;;;;;75.78;36.55;;;12.50;99.90;;;;;;6302813;22;20002;-91
2022/04/21 08:02:25;;;;;;;;;;;12.60;99.90;;;;;;6303565;22;20050;-90
2022/04/21 08:04:50;;;;;;;62.72;34.03;;;12.70;99.90;;;;;;6302853;22;19926;-90
2022/04/21 08:07:16;;;;;;;64.38;34.58;;;;;;;;;;6303322;22;20014;-90
2022/04/21 08:09:43;;;;;;;50.78;30.98;;;;;;;;;;6275201;22;20034;-91
2022/04/21 08:12:09;;;;;;;52.15;29.27;;;13.00;99.90;;;;;;6303542;22;20503;-92
2022/04/21 08:14:35;;;;;;;41.97;25.17;;;13.10;99.90;;;;;;6302440;22;20049;-89
2022/04/21 08:17:01;;;;;;;36.67;20.50;;;;;;;;;;6302710;22;20456;-91
2022/04/21 08:19:27;;;;;;;25.95;16.45;;;;;;;;;;6275616;22;20007;-90
2022/04/21 08:21:53;;;;;;;28.70;16.67;;;;;;;;;;6275013;22;20006;-91
2022/04/21 08:41:09;;;;;;;26.42;14.13;;;13.90;99.90;;;;;;6036673;23;20515;-93
2022/04/21 08:46:25;;;;;;;23.75;14.02;;;14.10;99.90;;;;;;5949791;24;20016;-91
2022/04/21 08:48:54;;;;;;;26.10;14.55;;;;;;;;;;6036752;23;20120;-90
2022/04/21 08:51:35;;;;;;;24.65;14.82;;;14.30;99.90;;;;;;6066842;23;20456;-93
2022/04/21 08:57:19;;;;;;;25.02;13.60;;;14.60;99.90;;;;;;6169701;23;19997;-94
2022/04/21 09:00:07;;;;;;;23.52;13.68;;;14.60;99.90;;;;;;6182290;23;20067;-94
2022/04/21 09:02:56;;;;;;;18.88;12.60;;;14.70;99.90;;;;;;6158177;23;20774;-93
2022/04/21 09:05:30;;;;;;;23.58;13.73;;;14.80;99.90;;;;;;6174375;23;20454;-93
2022/04/21 09:08:34;;;;;;;26.17;14.30;;;14.80;99.90;;;;;;6153846;23;20008;-92
2022/04/21 09:14:01;;;;;;;20.15;12.65;;;14.90;99.90;;;;;;6179191;23;20339;-91
2022/04/21 09:16:40;;;;;;;24.23;13.00;;;15.10;99.90;;;;;;6174826;22;20773;-90
2022/04/21 09:19:09;;;;;;;23.58;13.38;;;;;;;;;;6275586;22;20004;-92
2022/04/21 09:21:38;;;;;;;;;;;15.20;99.90;;;;;;6276351;22;20004;-91
2022/04/21 09:24:25;;;;;;;21.05;12.70;;;15.30;99.90;;;;;;6303313;22;19907;-90
2022/04/21 09:26:52;;;;;;;20.45;13.02;;;15.60;99.90;;;;;;6303323;22;20018;-90
2022/04/21 09:29:30;;;;;;;28.42;12.20;;;15.70;99.90;;;;;;6277396;22;20000;-89
2022/04/21 09:32:04;;;;;;;18.23;11.32;;;15.60;99.90;;;;;;6286624;22;20067;-90
2022/04/21 09:34:30;;;;;;;18.58;11.85;;;;;;;;;;6285699;22;20000;-91
2022/04/21 09:37:29;;;;;;;22.75;12.18;;;15.40;99.90;;;;;;6314132;22;20079;-91
2022/04/21 09:39:55;;;;;;;23.73;13.32;;;;;;;;;;6308484;22;20073;-94
2022/04/21 09:42:28;;;;;;;22.30;12.45;;;15.30;99.90;;;;;;6313934;22;20034;-95
2022/04/21 09:47:55;;;;;;;18.60;11.20;;;15.30;99.90;;;;;;6309252;22;20534;-95
2022/04/21 09:50:32;;;;;;;20.02;10.85;;;15.60;99.90;;;;;;6305915;22;20003;-94
2022/04/21 09:53:02;;;;;;;17.77;10.25;;;15.70;99.90;;;;;;6310131;22;20010;-92
2022/04/21 09:55:32;;;;;;;17.95;10.38;;;15.90;99.90;;;;;;6306655;22;20000;-87
2022/04/21 09:58:07;;;;;;;21.23;10.57;;;16.00;99.90;;;;;;6305034;22;20466;-94
2022/04/21 10:00:35;;;;;;;18.30;9.65;;;16.20;99.90;;;;;;6305067;22;20003;-89
2022/04/21 10:03:02;;;;;;;16.25;10.30;;;;;;;;;;6311595;22;20026;-93
2022/04/21 10:06:25;;;;;;;26.65;10.57;;;16.30;99.90;;;;;;6308953;22;19999;-90
2022/04/21 10:18:25;;;;;;;;;;;;;;;;;;;;;
2022/04/21 10:21:31;;;;;;;18.52;9.73;;;16.60;99.90;;;;;;5999043;23;20313;-90
2022/04/21 10:24:01;;;;;;;20.85;10.07;;;16.40;99.90;;;;;;6091420;23;20057;-94
2022/04/21 10:34:05;;;;;;;;;;;;;;;;;;;;;
2022/04/21 10:36:51;;;;;;;;;;;;;;;;;;;;;
2022/04/21 10:42:29;;;;;;;12.65;8.35;;;16.80;99.90;;;;;;6031347;23;20031;-95
2022/04/21 10:45:05;;;;;;;;;;;;;;;;;;;;;
2022/04/21 10:47:38;;;;;;;14.63;7.13;;;17.00;99.90;;;;;;6126150;23;20108;-92
2022/04/21 10:50:18;;;;;;;19.35;7.53;;;17.20;98.10;;;;;;6310869;22;20004;-89
2022/04/21 10:58:33;;;;;;;15.18;7.05;;;17.00;99.90;;;;;;6304455;22;20045;-91
2022/04/21 11:01:22;;;;;;;11.35;6.40;;;17.30;99.90;;;;;;6304295;22;20026;-92
2022/04/21 11:04:25;;;;;;;10.38;6.15;;;16.90;99.90;;;;;;6277874;22;20003;-89
2022/04/21 11:07:07;;;;;;;8.98;5.03;;;17.40;83.00;;;;;;6277231;22;20019;-90
2022/04/21 11:09:54;;;;;;;6.57;4.28;;;17.40;94.50;;;;;;6276433;22;19999;-87
2022/04/21 11:12:43;;;;;;;6.70;4.00;;;17.40;96.70;;;;;;6277822;22;20083;-90
2022/04/21 11:15:29;;;;;;;13.07;3.78;;;17.30;98.30;;;;;;6304260;22;20652;-91
2022/04/21 11:18:05;;;;;;;8.90;3.72;;;17.00;77.60;;;;;;6277122;22;20003;-89
2022/04/21 11:20:31;;;;;;;7.25;4.30;;;;;;;;;;6305058;22;20431;-92
2022/04/21 11:23:00;;;;;;;10.85;4.05;;;17.20;69.60;;;;;;6277890;22;20076;-89
2022/04/21 11:25:25;;;;;;;8.13;4.07;;;17.20;72.10;;;;;;6304079;22;20015;-91
2022/04/21 11:27:52;;;;;;;10.05;4.35;;;;;;;;;;6306997;22;20401;-89
2022/04/21 11:30:20;;;;;;;7.45;4.38;;;16.60;60.20;;;;;;6307751;22;20451;-93
2022/04/21 11:32:53;;;;;;;6.65;3.70;;;16.60;71.20;;;;;;6284003;22;20015;-92
2022/04/21 11:40:10;;;;;;;;;;;;;;;;;;;;;
2022/04/21 11:42:30;;;;;;;8.30;4.10;;;17.70;63.70;;;;;;6194178;23;20009;-92
2022/04/21 11:44:56;;;;;;;5.15;3.80;;;;;;;;;;6159979;23;20012;-94
2022/04/21 11:47:24;;;;;;;4.78;3.90;;;;;;;;;;6189532;23;20017;-89
2022/04/21 11:51:01;;;;;;;;;;;;;;;;;;;;;
2022/04/21 12:06:28;;;;;;;13.18;4.32;;;;;;;;;;6172997;23;20072;-90
2022/04/21 12:09:10;;;;;;;5.45;4.20;;;17.30;65.40;;;;;;6259000;22;20003;-91
2022/04/21 12:11:39;;;;;;;6.63;4.70;;;17.30;53.80;;;;;;6275585;22;20086;-92
2022/04/21 12:14:05;;;;;;;6.15;4.10;;;;;;;;;;6276555;22;20407;-91
2022/04/21 12:16:49;;;;;;;8.02;4.30;;;18.00;55.70;;;;;;6303830;22;20090;-89
2022/04/21 12:19:33;;;;;;;5.05;4.30;;;17.50;65.00;;;;;;6276703;22;20002;-92
2022/04/21 12:22:09;;;;;;;10.48;5.13;;;17.50;55.30;;;;;;6277443;22;20003;-91
2022/04/21 12:24:38;;;;;;;10.20;4.60;;;17.50;61.60;;;;;;6277182;22;20007;-90
2022/04/21 12:27:19;;;;;;;11.32;4.40;;;17.40;62.60;;;;;;6304497;22;20436;-92
2022/04/21 12:29:51;;;;;;;8.93;4.40;;;17.60;54.10;;;;;;6304504;22;20479;-90
2022/04/21 12:33:01;;;;;;;5.95;4.40;;;17.50;53.00;;;;;;6276584;22;20003;-92
2022/04/21 12:35:45;;;;;;;5.95;4.50;;;18.20;58.40;;;;;;6299948;22;20003;-91
2022/04/21 12:41:05;;;;;;;9.10;4.70;;;;;;;;;;6303800;22;20013;-89
2022/04/21 12:43:54;;;;;;;11.40;4.38;;;17.70;51.70;;;;;;6276417;22;20049;-90
2022/04/21 12:46:32;;;;;;;4.65;3.97;;;17.40;54.80;;;;;;6277174;22;20069;-90
2022/04/21 12:52:17;;;;;;;9.95;4.53;;;17.40;60.50;;;;;;6213021;23;20005;-91
2022/04/21 12:54:47;;;;;;;9.38;3.85;;;17.50;53.80;;;;;;6211929;23;20005;-90
2022/04/21 12:57:35;;;;;;;7.43;4.32;;;17.30;56.30;;;;;;6213926;23;20406;-94
2022/04/21 13:00:10;;;;;;;5.03;3.88;;;17.40;60.70;;;;;;6219135;23;20000;-91
2022/04/21 13:50:58;;;;;;;5.95;3.10;;;18.30;57.10;;;;;;5124671;27;20374;-85
2022/04/21 13:53:23;;;;;;;5.18;3.58;;;18.30;50.10;;;;;;5108538;28;20024;-88
2022/04/21 13:55:49;;;;;;;8.93;3.50;;;18.30;45.20;;;;;;5107689;28;20028;-90
2022/04/21 13:58:15;;;;;;;5.05;2.90;;;18.30;49.60;;;;;;5107289;28;20026;-89
2022/04/21 14:00:44;;;;;;;4.03;3.25;;;18.60;57.60;;;;;;5107480;28;20040;-90
2022/04/21 14:03:11;;;;;;;6.32;2.90;;;18.80;56.80;;;;;;5106099;28;20065;-91
2022/04/21 14:05:37;;;;;;;4.65;2.90;;;18.70;44.10;;;;;;5107473;28;20051;-89
2022/04/21 14:08:04;;;;;;;6.10;3.17;;;18.50;48.20;;;;;;5107244;28;20111;-89
2022/04/21 14:10:30;;;;;;;8.65;3.58;;;18.50;46.00;;;;;;5107368;28;20066;-86
2022/04/21 14:12:56;;;;;;;4.05;3.20;;;18.50;46.10;;;;;;5107931;28;20023;-89
2022/04/21 14:15:24;;;;;;;4.32;3.15;;;18.80;48.60;;;;;;5107416;28;20020;-89
2022/04/21 14:17:50;;;;;;;3.50;3.20;;;18.90;49.80;;;;;;5107302;28;20560;-88
2022/04/21 14:20:16;;;;;;;4.30;2.95;;;19.00;46.70;;;;;;5105907;28;20043;-88
2022/04/21 14:22:41;;;;;;;5.72;3.40;;;18.70;48.10;;;;;;5106962;28;20028;-90
2022/04/21 14:25:07;;;;;;;4.72;3.10;;;18.40;44.90;;;;;;5106912;28;20024;-90
2022/04/21 14:27:33;;;;;;;5.72;3.00;;;18.30;50.30;;;;;;5106869;28;20102;-89
2022/04/21 14:29:58;;;;;;;5.45;3.35;;;18.40;51.00;;;;;;5107889;28;20113;-88
2022/04/21 14:32:24;;;;;;;4.65;3.25;;;18.40;44.90;;;;;;5106975;28;20028;-89
2022/04/21 14:34:50;;;;;;;3.60;2.85;;;18.50;47.20;;;;;;5106713;28;20031;-88
2022/04/21 14:44:04;;;;;;;6.75;2.85;;;18.70;48.50;;;;;;5105259;28;20476;-88
2022/04/21 14:45:34;;;;;;;10.85;3.17;;;18.60;47.70;;;;;;5095337;28;20468;-89
2022/04/21 14:48:01;;;;;;;6.68;3.50;;;18.80;46.30;;;;;;5106097;28;20024;-90
2022/04/21 14:50:29;;;;;;;3.30;2.72;;;18.90;45.00;;;;;;5101840;28;20032;-90
2022/04/21 14:52:54;;;;;;;4.50;3.00;;;18.90;40.60;;;;;;5093901;28;20429;-88
2022/04/21 14:55:20;;;;;;;8.07;3.50;;;18.80;43.80;;;;;;5091960;28;20074;-92
2022/04/21 14:57:45;;;;;;;5.88;3.35;;;18.70;43.30;;;;;;5092686;28;20044;-89
2022/04/21 15:00:12;;;;;;;7.15;3.20;;;18.50;43.70;;;;;;5092577;28;20039;-90
2022/04/21 15:02:38;;;;;;;9.80;3.15;;;18.50;44.20;;;;;;5092647;28;20430;-89
2022/04/21 15:05:04;;;;;;;8.40;4.00;;;18.60;48.20;;;;;;5092029;28;20027;-90
2022/04/21 15:07:29;;;;;;;7.45;3.92;;;18.70;44.90;;;;;;5093063;28;20051;-88
2022/04/21 15:09:55;;;;;;;5.88;3.80;;;18.70;39.80;;;;;;5092107;28;20493;-89
2022/04/21 15:12:21;;;;;;;9.18;4.00;;;18.60;42.50;;;;;;5091302;28;20016;-87
2022/04/21 15:14:46;;;;;;;6.95;4.30;;;18.60;43.30;;;;;;5091354;28;20526;-88
2022/04/21 15:17:12;;;;;;;4.97;4.20;;;18.70;45.70;;;;;;5092625;28;20020;-86
2022/04/21 15:19:39;;;;;;;6.35;4.30;;;18.80;41.80;;;;;;5091755;28;20040;-91
2022/04/21 15:22:05;;;;;;;7.00;4.10;;;18.70;40.50;;;;;;5092617;28;20069;-91
2022/04/21 15:24:32;;;;;;;7.10;4.10;;;18.70;41.90;;;;;;5092704;28;20036;-91
2022/04/21 15:26:57;;;;;;;8.10;4.40;;;18.70;44.90;;;;;;5091308;28;20016;-93
2022/04/21 15:29:23;;;;;;;6.72;3.70;;;;;;;;;;5093545;28;20217;-92
2022/04/21 15:31:49;;;;;;;7.40;4.22;;;19.10;45.40;;;;;;5090982;28;20545;-92
2022/04/21 15:34:15;;;;;;;4.45;3.92;;;19.10;46.00;;;;;;5092168;28;20059;-91
2022/04/21 15:36:42;;;;;;;5.93;3.97;;;18.80;41.60;;;;;;5093780;28;20024;-92
2022/04/21 15:39:08;;;;;;;6.93;4.23;;;18.80;44.80;;;;;;5090575;28;20042;-88
2022/04/21 15:41:35;;;;;;;13.32;4.10;;;18.80;43.40;;;;;;5092431;28;20028;-86
2022/04/21 15:44:02;;;;;;;5.00;3.70;;;18.90;46.20;;;;;;5092327;28;20388;-87
2022/04/21 15:46:28;;;;;;;7.43;3.95;;;18.70;42.00;;;;;;5091815;28;20019;-90
2022/04/21 15:48:53;;;;;;;5.47;3.70;;;18.70;41.10;;;;;;5091205;28;20327;-91
2022/04/21 15:51:19;;;;;;;7.85;5.00;;;18.70;42.50;;;;;;5091454;28;20024;-89
2022/04/21 15:59:13;;;;;;;6.22;4.20;;;18.50;39.50;;;;;;5091713;28;20031;-92